createdAt,value
2022-12-20T04:49:47.415Z,99.53
2022-12-20T04:53:09.478Z,99.53
2022-12-20T04:56:12.294Z,100.00
2022-12-20T04:59:15.347Z,99.71
2022-12-20T05:02:18.303Z,99.33
2022-12-20T05:05:21.740Z,98.16
2022-12-20T05:08:24.639Z,98.46
2022-12-20T05:11:27.592Z,98.08
2022-12-20T05:14:30.059Z,97.91
2022-12-20T05:17:33.027Z,97.88
2022-12-20T05:20:36.613Z,97.26
2022-12-20T05:23:58.356Z,96.95
2022-12-20T05:27:01.383Z,97.09
2022-12-20T05:30:04.757Z,96.80
2022-12-20T05:33:07.759Z,96.98
2022-12-20T05:36:10.495Z,97.43
2022-12-20T05:39:13.214Z,98.02
2022-12-20T05:42:16.061Z,96.53
2022-12-20T05:45:18.894Z,96.96
2022-12-20T05:48:21.958Z,96.77
2022-12-20T05:51:24.945Z,97.17
2022-12-20T05:54:27.991Z,97.52
2022-12-20T05:57:31.538Z,96.48
2022-12-20T06:00:35.178Z,96.95
2022-12-20T06:03:39.461Z,97.18
2022-12-20T06:06:42.295Z,97.32
2022-12-20T06:09:45.562Z,97.75
2022-12-20T06:12:48.333Z,98.19
2022-12-20T06:15:51.743Z,98.55
2022-12-20T06:18:54.472Z,98.16
2022-12-20T06:21:59.364Z,98.68
2022-12-20T06:25:02.283Z,98.91
2022-12-20T06:28:07.564Z,99.03
2022-12-20T06:31:11.125Z,99.54
2022-12-20T06:34:14.028Z,99.55
2022-12-20T06:37:16.600Z,99.46
2022-12-20T06:40:20.710Z,99.07
2022-12-20T06:43:23.128Z,98.66
2022-12-20T06:46:27.342Z,98.91
2022-12-20T06:49:31.273Z,98.56
2022-12-20T06:52:34.143Z,98.85
2022-12-20T06:55:36.531Z,98.92
2022-12-20T06:58:39.373Z,98.83
2022-12-20T07:01:42.127Z,98.56
2022-12-20T07:04:45.157Z,98.30
2022-12-20T07:07:47.569Z,98.33
2022-12-20T07:10:52.871Z,97.39
2022-12-20T07:14:00.030Z,97.57
2022-12-20T07:17:03.885Z,97.07
2022-12-20T07:20:13.017Z,96.12
2022-12-20T07:23:16.670Z,95.79
2022-12-20T07:26:19.042Z,95.83
2022-12-20T07:29:21.703Z,94.73
2022-12-20T07:32:24.175Z,94.01
2022-12-20T07:35:28.868Z,93.59
2022-12-20T07:38:31.601Z,92.88
2022-12-20T07:41:34.292Z,92.52
2022-12-20T07:44:38.900Z,91.12
2022-12-20T07:47:41.520Z,90.97
2022-12-20T07:50:43.993Z,91.29
2022-12-20T07:54:00.367Z,91.43
2022-12-20T07:57:12.561Z,90.35
2022-12-20T08:00:16.421Z,89.19
2022-12-20T08:03:23.677Z,89.26
2022-12-20T08:06:26.352Z,89.06
2022-12-20T08:09:35.308Z,88.45
2022-12-20T08:12:38.837Z,88.45
2022-12-20T08:15:41.615Z,89.37
2022-12-20T08:18:44.597Z,89.58
2022-12-20T08:21:48.076Z,89.66
2022-12-20T08:24:50.516Z,90.28
2022-12-20T08:27:54.699Z,90.47
2022-12-20T08:31:07.965Z,90.76
2022-12-20T08:34:11.377Z,90.34
2022-12-20T08:37:17.591Z,89.61
2022-12-20T08:40:21.055Z,89.56
2022-12-20T08:43:23.460Z,88.33
2022-12-20T08:46:26.788Z,86.60
2022-12-20T08:49:29.499Z,85.49
2022-12-20T08:52:32.499Z,84.39
2022-12-20T08:55:35.475Z,84.05
2022-12-20T08:58:39.395Z,83.79
2022-12-20T09:01:42.040Z,85.09
2022-12-20T09:04:45.229Z,86.05
2022-12-20T09:07:47.973Z,86.20
2022-12-20T09:10:52.006Z,85.37
2022-12-20T09:13:57.367Z,85.09
2022-12-20T09:17:00.271Z,84.54
2022-12-20T09:20:03.285Z,84.29
2022-12-20T09:23:06.069Z,84.47
2022-12-20T09:26:11.952Z,84.60
2022-12-20T09:29:18.130Z,84.08
2022-12-20T09:32:24.867Z,82.96
2022-12-20T09:35:28.076Z,83.05
2022-12-20T09:38:32.234Z,82.60
2022-12-20T09:41:39.507Z,82.38
2022-12-20T09:44:42.930Z,82.05
2022-12-20T09:47:45.969Z,81.46
2022-12-20T09:51:16.367Z,81.92
2022-12-20T09:54:34.501Z,82.00
2022-12-20T09:57:39.955Z,81.19
2022-12-20T10:00:53.267Z,81.60
2022-12-20T10:03:59.942Z,81.02
2022-12-20T10:07:09.331Z,80.42
2022-12-20T10:10:27.779Z,79.82
2022-12-20T10:13:46.623Z,79.48
2022-12-20T10:16:56.833Z,79.15
2022-12-20T10:20:08.979Z,78.01
2022-12-20T10:23:36.514Z,79.39
2022-12-20T10:26:39.404Z,78.38
2022-12-20T10:29:42.962Z,78.27
2022-12-20T10:32:48.617Z,77.87
2022-12-20T10:35:52.267Z,78.08
2022-12-20T10:38:59.893Z,78.36
2022-12-20T10:42:02.862Z,78.50
2022-12-20T10:45:23.523Z,76.57
2022-12-20T10:48:40.155Z,74.51
2022-12-20T10:51:52.684Z,74.50
2022-12-20T10:54:55.445Z,74.80
2022-12-20T10:58:03.738Z,73.67
2022-12-20T11:01:13.513Z,72.59
2022-12-20T11:04:25.993Z,72.22
2022-12-20T11:07:32.073Z,72.71
2022-12-20T11:10:35.189Z,72.70
2022-12-20T11:13:38.048Z,72.73
2022-12-20T11:16:40.606Z,72.27
2022-12-20T11:19:49.616Z,72.71
2022-12-20T11:23:01.937Z,71.22
2022-12-20T11:26:19.196Z,70.95
2022-12-20T11:29:36.971Z,70.76
2022-12-20T11:33:11.795Z,70.73
2022-12-20T11:36:38.213Z,71.26
2022-12-20T11:39:58.762Z,71.77
2022-12-20T11:43:13.314Z,72.13
2022-12-20T11:46:31.087Z,72.63
2022-12-20T11:50:11.137Z,72.19
2022-12-20T11:53:20.982Z,71.74
2022-12-20T11:56:45.362Z,71.03
2022-12-20T11:59:55.687Z,71.45
2022-12-20T12:03:40.429Z,72.16
2022-12-20T12:06:53.569Z,71.32
2022-12-20T12:10:14.493Z,70.21
2022-12-20T12:13:29.353Z,70.23
2022-12-20T12:16:44.655Z,70.13
2022-12-20T12:19:51.029Z,70.06
2022-12-20T12:23:01.409Z,70.22
2022-12-20T12:26:13.504Z,70.37
2022-12-20T12:29:17.828Z,69.02
2022-12-20T12:32:44.475Z,69.03
2022-12-20T12:36:16.521Z,70.19
2022-12-20T12:39:38.123Z,70.78
2022-12-20T12:43:13.027Z,70.05
2022-12-20T12:46:29.791Z,71.55
2022-12-20T12:49:33.957Z,71.86
2022-12-20T12:52:49.565Z,72.54
2022-12-20T12:56:07.531Z,72.12
2022-12-20T12:59:40.497Z,71.69
2022-12-20T13:02:51.523Z,72.21
2022-12-20T13:05:54.282Z,71.63
2022-12-20T13:08:56.615Z,71.03
2022-12-20T13:12:02.406Z,72.30
2022-12-20T13:15:20.265Z,72.15
2022-12-20T13:18:24.687Z,72.64
2022-12-20T13:21:35.336Z,73.58
2022-12-20T13:24:42.457Z,73.36
2022-12-20T13:27:44.885Z,73.13
2022-12-20T13:31:09.874Z,73.93
2022-12-20T13:34:58.667Z,73.42
2022-12-20T13:38:07.383Z,74.38
2022-12-20T13:41:20.451Z,74.46
2022-12-20T13:44:41.456Z,73.63
2022-12-20T13:48:05.059Z,74.09
2022-12-20T13:51:17.948Z,73.91
2022-12-20T13:54:26.844Z,74.25
2022-12-20T13:57:43.486Z,73.78
2022-12-20T14:00:47.708Z,73.82
2022-12-20T14:03:51.650Z,74.51
2022-12-20T14:06:58.527Z,74.71
2022-12-20T14:10:04.601Z,74.24
2022-12-20T14:13:25.411Z,74.22
2022-12-20T14:16:30.960Z,74.30
2022-12-20T14:19:33.653Z,74.82
2022-12-20T14:22:37.358Z,74.66
2022-12-20T14:25:48.980Z,74.87
2022-12-20T14:28:54.723Z,74.57
2022-12-20T14:31:57.323Z,74.23
2022-12-20T14:35:00.154Z,74.66
2022-12-20T14:38:04.244Z,75.06
2022-12-20T14:41:35.185Z,75.33
2022-12-20T14:44:38.476Z,75.60
2022-12-20T14:47:55.990Z,75.84
2022-12-20T14:50:59.458Z,76.41
2022-12-20T14:54:02.804Z,76.73
2022-12-20T14:57:11.897Z,76.69
2022-12-20T15:00:17.802Z,76.64
2022-12-20T15:03:23.405Z,76.71
2022-12-20T15:06:44.176Z,79.51
2022-12-20T15:09:46.614Z,80.76
2022-12-20T15:12:49.477Z,81.93
2022-12-20T15:15:52.321Z,83.22
2022-12-20T15:18:57.277Z,84.03
2022-12-20T15:22:00.312Z,85.01
2022-12-20T15:25:16.338Z,85.38
2022-12-20T15:28:21.854Z,85.59
2022-12-20T15:31:33.058Z,86.47
2022-12-20T15:34:38.654Z,86.71
2022-12-20T15:37:41.730Z,86.99
2022-12-20T15:40:46.755Z,87.06
2022-12-20T15:43:56.963Z,86.77
2022-12-20T15:46:59.517Z,86.73
2022-12-20T15:50:02.274Z,86.57
2022-12-20T15:53:04.711Z,87.15
2022-12-20T15:56:17.886Z,87.21
2022-12-20T15:59:57.740Z,86.86
2022-12-20T16:02:43.360Z,87.16
2022-12-20T16:05:48.152Z,87.58
2022-12-20T16:08:50.639Z,88.12
2022-12-20T16:11:53.729Z,88.51
2022-12-20T16:14:56.357Z,88.16
2022-12-20T16:17:59.052Z,88.05
2022-12-20T16:21:03.588Z,88.06
2022-12-20T16:24:06.528Z,88.23
